createdAt,value
2022-11-13T00:00:19.546Z,6.24
2022-11-13T00:03:05.076Z,6.27
2022-11-13T00:05:59.046Z,6.27
2022-11-13T00:08:45.091Z,6.28
2022-11-13T00:11:30.662Z,6.29
2022-11-13T00:14:16.493Z,6.23
2022-11-13T00:17:03.419Z,6.15
2022-11-13T00:19:49.170Z,6.15
2022-11-13T00:22:35.344Z,6.21
2022-11-13T00:25:20.684Z,6.25
2022-11-13T00:28:06.168Z,6.27
2022-11-13T00:30:57.537Z,6.29
2022-11-13T00:34:09.158Z,6.32
2022-11-13T00:36:50.561Z,6.29
2022-11-13T00:39:36.012Z,6.25
2022-11-13T00:42:21.701Z,6.25
2022-11-13T00:45:08.063Z,6.24
2022-11-13T00:47:53.685Z,6.23
2022-11-13T00:50:40.982Z,6.15
2022-11-13T00:53:27.055Z,6.04
2022-11-13T00:56:12.561Z,5.62
2022-11-13T00:59:06.469Z,5.66
2022-11-13T01:01:52.457Z,5.60
2022-11-13T01:04:38.415Z,5.50
2022-11-13T01:07:26.060Z,5.59
2022-11-13T01:10:11.426Z,5.60
2022-11-13T01:12:57.099Z,5.62
2022-11-13T01:15:45.080Z,5.41
2022-11-13T01:18:31.036Z,5.33
2022-11-13T01:21:19.986Z,5.32
2022-11-13T01:24:07.442Z,5.47
2022-11-13T01:26:53.370Z,5.59
2022-11-13T01:29:39.309Z,5.49
2022-11-13T01:32:24.943Z,5.54
2022-11-13T01:35:10.229Z,5.56
2022-11-13T01:37:58.845Z,5.33
2022-11-13T01:40:47.976Z,5.30
2022-11-13T01:43:37.696Z,5.44
2022-11-13T01:46:31.371Z,5.37
2022-11-13T01:49:30.558Z,5.43
2022-11-13T01:52:20.249Z,5.39
2022-11-13T01:55:12.752Z,5.45
2022-11-13T01:58:02.452Z,5.45
2022-11-13T02:00:48.435Z,5.49
2022-11-13T02:03:34.124Z,5.60
2022-11-13T02:06:20.862Z,5.55
2022-11-13T02:09:07.614Z,5.62
2022-11-13T02:11:53.830Z,5.59
2022-11-13T02:14:45.422Z,5.55
2022-11-13T02:17:37.577Z,5.54
2022-11-13T02:20:35.113Z,5.57
2022-11-13T02:23:31.236Z,5.60
2022-11-13T02:26:23.868Z,5.60
2022-11-13T02:29:09.097Z,5.59
2022-11-13T02:31:54.479Z,5.61
2022-11-13T02:34:40.121Z,5.66
2022-11-13T02:37:25.729Z,5.66
2022-11-13T02:40:13.148Z,5.68
2022-11-13T02:43:01.318Z,5.64
2022-11-13T02:45:46.795Z,5.62
2022-11-13T02:48:32.341Z,5.64
2022-11-13T02:51:17.779Z,5.63
2022-11-13T02:54:04.090Z,5.62
2022-11-13T02:56:49.745Z,5.62
2022-11-13T02:59:36.734Z,5.60
2022-11-13T03:02:22.286Z,5.60
2022-11-13T03:05:12.399Z,5.59
2022-11-13T03:07:59.106Z,5.60
2022-11-13T03:10:44.822Z,5.61
2022-11-13T03:13:30.734Z,5.55
2022-11-13T03:16:18.282Z,5.57
2022-11-13T03:19:04.435Z,5.54
2022-11-13T03:21:50.749Z,5.54
2022-11-13T03:24:36.985Z,5.54
2022-11-13T03:27:22.819Z,5.53
2022-11-13T03:30:10.094Z,5.51
2022-11-13T03:32:57.828Z,5.49
2022-11-13T03:35:47.002Z,5.39
2022-11-13T03:38:34.192Z,5.35
2022-11-13T03:41:21.608Z,5.34
2022-11-13T03:44:06.861Z,5.24
2022-11-13T03:46:52.129Z,5.17
2022-11-13T03:49:39.287Z,5.14
2022-11-13T03:52:25.320Z,5.11
2022-11-13T03:55:11.138Z,5.07
2022-11-13T03:57:59.183Z,5.06
2022-11-13T04:00:46.691Z,5.02
2022-11-13T04:03:33.410Z,5.03
2022-11-13T04:06:20.225Z,5.04
2022-11-13T04:09:05.717Z,5.04
2022-11-13T04:11:51.376Z,5.00
2022-11-13T04:14:37.201Z,4.99
2022-11-13T04:17:22.414Z,4.95
2022-11-13T04:20:09.579Z,4.92
2022-11-13T04:22:57.629Z,4.90
2022-11-13T04:25:43.551Z,4.87
2022-11-13T04:28:30.198Z,4.84
2022-11-13T04:31:15.817Z,4.79
2022-11-13T04:34:01.332Z,4.79
2022-11-13T04:36:47.263Z,4.77
2022-11-13T04:39:33.783Z,4.79
2022-11-13T04:42:19.036Z,4.73
2022-11-13T04:45:06.024Z,4.57
2022-11-13T04:47:51.657Z,4.32
2022-11-13T04:50:37.480Z,4.30
2022-11-13T04:53:26.474Z,4.34
2022-11-13T04:56:13.837Z,4.41
2022-11-13T04:58:59.374Z,4.46
2022-11-13T05:01:45.043Z,4.51
2022-11-13T05:04:30.158Z,4.54
2022-11-13T05:07:16.419Z,4.59
2022-11-13T05:10:01.626Z,4.61
2022-11-13T05:12:48.474Z,4.63
2022-11-13T05:15:34.101Z,4.63
2022-11-13T05:18:19.842Z,4.61
2022-11-13T05:21:08.054Z,4.64
2022-11-13T05:23:53.338Z,4.55
2022-11-13T05:26:40.424Z,4.51
2022-11-13T05:29:27.373Z,4.49
2022-11-13T05:32:13.014Z,4.51
2022-11-13T05:34:58.465Z,4.45
2022-11-13T05:37:43.868Z,4.42
2022-11-13T05:40:29.976Z,4.40
2022-11-13T05:43:15.494Z,4.35
2022-11-13T05:46:06.066Z,4.30
2022-11-13T05:48:54.749Z,4.29
2022-11-13T05:51:40.357Z,4.30
2022-11-13T05:54:26.193Z,4.32
2022-11-13T05:57:11.492Z,4.27
2022-11-13T05:59:56.955Z,4.31
2022-11-13T06:02:44.240Z,4.20
2022-11-13T06:05:29.700Z,4.13
2022-11-13T06:08:14.915Z,4.05
2022-11-13T06:11:02.835Z,4.03
2022-11-13T06:13:49.778Z,4.04
2022-11-13T06:16:38.414Z,4.05
2022-11-13T06:19:25.634Z,4.06
2022-11-13T06:22:11.801Z,4.11
2022-11-13T06:24:56.947Z,4.14
2022-11-13T06:27:42.794Z,4.12
2022-11-13T06:30:28.763Z,4.15
2022-11-13T06:33:14.739Z,4.18
2022-11-13T06:36:03.630Z,4.16
2022-11-13T06:38:50.357Z,4.13
2022-11-13T06:41:38.877Z,4.02
2022-11-13T06:44:24.485Z,3.85
2022-11-13T06:47:10.480Z,3.71
2022-11-13T06:49:56.059Z,3.77
2022-11-13T06:52:42.798Z,3.89
2022-11-13T06:55:27.855Z,3.93
2022-11-13T06:58:14.725Z,4.02
2022-11-13T07:01:06.074Z,4.02
2022-11-13T07:03:51.884Z,4.05
2022-11-13T07:06:40.599Z,4.07
2022-11-13T07:09:35.082Z,4.17
2022-11-13T07:12:20.971Z,4.19
2022-11-13T07:15:07.486Z,4.23
2022-11-13T07:17:53.782Z,4.27
2022-11-13T07:20:39.325Z,4.28
2022-11-13T07:23:27.832Z,4.31
2022-11-13T07:26:15.171Z,4.32
2022-11-13T07:29:00.759Z,4.25
2022-11-13T07:31:46.368Z,4.23
2022-11-13T07:34:31.894Z,4.25
2022-11-13T07:37:17.746Z,4.16
2022-11-13T07:40:07.004Z,4.22
2022-11-13T07:42:58.881Z,4.20
2022-11-13T07:45:44.782Z,4.23
2022-11-13T07:48:31.035Z,4.30
2022-11-13T07:51:16.769Z,4.31
2022-11-13T07:54:02.348Z,4.39
2022-11-13T07:56:47.638Z,4.48
2022-11-13T07:59:35.080Z,4.54
2022-11-13T08:02:26.657Z,4.60
2022-11-13T08:05:15.044Z,4.69
2022-11-13T08:08:01.371Z,4.83
2022-11-13T08:10:47.575Z,4.98
2022-11-13T08:13:34.135Z,5.17
2022-11-13T08:16:20.983Z,5.37
2022-11-13T08:19:06.925Z,5.57
2022-11-13T08:21:52.475Z,5.56
2022-11-13T08:24:38.083Z,5.60
2022-11-13T08:27:24.978Z,5.68
2022-11-13T08:30:12.698Z,5.82
2022-11-13T08:33:03.107Z,6.02
2022-11-13T08:35:56.129Z,6.08
2022-11-13T08:38:41.879Z,6.31
2022-11-13T08:41:27.192Z,6.51
2022-11-13T08:44:14.039Z,6.85
2022-11-13T08:47:02.697Z,7.05
2022-11-13T08:49:50.093Z,7.35
2022-11-13T08:52:35.591Z,7.60
2022-11-13T08:55:21.307Z,7.99
2022-11-13T08:58:06.504Z,9.08
2022-11-13T09:00:52.333Z,10.47
2022-11-13T09:03:37.974Z,11.98
2022-11-13T09:06:28.761Z,12.79
2022-11-13T09:09:15.317Z,13.78
2022-11-13T09:12:30.449Z,14.21
2022-11-13T09:15:19.125Z,14.73
2022-11-13T09:18:15.542Z,14.92
2022-11-13T09:21:02.482Z,14.94
2022-11-13T09:23:49.635Z,15.89
2022-11-13T09:26:37.369Z,16.76
2022-11-13T09:29:23.774Z,17.38
2022-11-13T09:32:09.202Z,17.99
2022-11-13T09:34:54.561Z,18.53
2022-11-13T09:37:40.560Z,18.97
2022-11-13T09:40:33.944Z,19.21
2022-11-13T09:43:34.845Z,19.59
2022-11-13T09:47:14.818Z,19.26
2022-11-13T09:50:10.851Z,18.61
2022-11-13T09:52:57.205Z,16.55
2022-11-13T09:56:02.594Z,14.21
2022-11-13T09:59:09.785Z,16.86
2022-11-13T10:02:10.959Z,18.24
2022-11-13T10:05:10.854Z,18.28
2022-11-13T10:08:07.616Z,18.36
2022-11-13T10:11:09.079Z,19.46
2022-11-13T10:14:01.671Z,20.26
2022-11-13T10:16:55.585Z,20.67
2022-11-13T10:19:53.023Z,20.47
2022-11-13T10:22:49.483Z,21.37
2022-11-13T10:25:38.104Z,21.67
2022-11-13T10:28:49.352Z,21.82
2022-11-13T10:31:46.401Z,22.03
2022-11-13T10:34:32.638Z,22.27
2022-11-13T10:37:39.944Z,22.47
2022-11-13T10:40:26.327Z,22.49
2022-11-13T10:43:16.742Z,22.39
2022-11-13T10:46:05.963Z,21.28
2022-11-13T10:48:52.514Z,22.09
2022-11-13T10:51:38.477Z,21.96
2022-11-13T10:54:28.840Z,21.68
2022-11-13T10:57:30.053Z,21.79
2022-11-13T11:00:23.623Z,22.32
2022-11-13T11:03:15.738Z,22.53
2022-11-13T11:06:04.236Z,21.66
2022-11-13T11:08:49.675Z,20.92
2022-11-13T11:11:34.863Z,21.61
2022-11-13T11:14:26.877Z,22.43
2022-11-13T11:17:18.358Z,22.84
2022-11-13T11:20:21.001Z,22.95
2022-11-13T11:23:22.918Z,22.64
2022-11-13T11:26:15.573Z,23.14
2022-11-13T11:29:16.012Z,23.20
2022-11-13T11:32:15.760Z,23.46
2022-11-13T11:35:14.343Z,23.35
2022-11-13T11:38:11.476Z,23.67
2022-11-13T11:41:17.686Z,22.93
2022-11-13T11:44:18.159Z,23.78
2022-11-13T11:47:04.734Z,24.28
2022-11-13T11:49:50.416Z,23.79
2022-11-13T11:52:59.771Z,24.24
2022-11-13T11:56:06.120Z,24.12
2022-11-13T11:59:15.523Z,23.97
2022-11-13T12:02:50.034Z,23.73
2022-11-13T12:05:49.228Z,23.57
2022-11-13T12:08:48.654Z,23.25
2022-11-13T12:11:40.058Z,21.62
2022-11-13T12:14:45.019Z,19.95
2022-11-13T12:17:50.582Z,18.65
2022-11-13T12:20:49.423Z,17.97
2022-11-13T12:24:06.078Z,17.62
2022-11-13T12:27:06.831Z,17.06
2022-11-13T12:30:13.847Z,16.77
2022-11-13T12:33:27.468Z,16.60
2022-11-13T12:36:14.446Z,16.57
2022-11-13T12:39:14.564Z,16.51
2022-11-13T12:42:13.826Z,16.45
2022-11-13T12:45:10.930Z,16.28
2022-11-13T12:48:07.278Z,15.06
2022-11-13T12:51:04.838Z,15.17
2022-11-13T12:54:12.238Z,15.14
2022-11-13T12:57:20.221Z,15.23
2022-11-13T13:00:24.734Z,15.33
2022-11-13T13:03:36.375Z,15.36
2022-11-13T13:06:51.259Z,15.26
2022-11-13T13:10:03.827Z,15.09
2022-11-13T13:13:02.629Z,14.86
2022-11-13T13:15:58.537Z,14.61
2022-11-13T13:18:44.252Z,14.52
2022-11-13T13:21:41.880Z,14.46
2022-11-13T13:24:34.566Z,14.28
2022-11-13T13:27:27.808Z,14.15
2022-11-13T13:30:20.517Z,14.09
2022-11-13T13:33:23.008Z,14.07
2022-11-13T13:36:25.726Z,14.08
2022-11-13T13:39:28.178Z,14.09
2022-11-13T13:42:57.617Z,13.88
2022-11-13T13:46:01.231Z,13.83
2022-11-13T13:48:50.534Z,13.87
2022-11-13T13:51:44.003Z,13.88
2022-11-13T13:54:33.980Z,13.93
2022-11-13T13:57:20.325Z,13.88
2022-11-13T14:00:12.562Z,13.88
2022-11-13T14:03:19.601Z,13.79
2022-11-13T14:06:17.137Z,13.82
2022-11-13T14:09:15.737Z,14.31
2022-11-13T14:12:16.925Z,14.41
2022-11-13T14:15:05.246Z,14.24
2022-11-13T14:17:50.626Z,14.10
2022-11-13T14:29:59.428Z,13.72
2022-11-13T14:32:47.297Z,13.63
2022-11-13T14:35:33.460Z,13.54
2022-11-13T14:38:24.902Z,13.47
2022-11-13T14:41:24.728Z,13.36
2022-11-13T14:44:12.125Z,13.28
2022-11-13T14:47:04.998Z,13.17
2022-11-13T14:49:50.759Z,13.11
2022-11-13T14:52:36.483Z,13.00
2022-11-13T14:55:25.574Z,12.91
2022-11-13T14:58:13.680Z,12.78
2022-11-13T15:01:12.105Z,12.73
2022-11-13T15:03:58.873Z,12.67
2022-11-13T15:06:45.141Z,12.56
2022-11-13T15:09:31.376Z,12.48
2022-11-13T15:12:17.119Z,12.45
2022-11-13T15:15:03.119Z,12.38
2022-11-13T15:17:51.926Z,12.35
2022-11-13T15:20:41.703Z,12.23
2022-11-13T15:23:27.398Z,12.09
2022-11-13T15:26:13.604Z,12.06
2022-11-13T15:28:59.245Z,12.09
2022-11-13T15:31:47.459Z,11.93
2022-11-13T15:34:33.391Z,11.87
2022-11-13T15:37:21.513Z,11.86
2022-11-13T15:40:10.644Z,11.75
2022-11-13T15:42:56.931Z,11.69
2022-11-13T15:45:44.442Z,11.52
2022-11-13T15:48:34.922Z,11.44
2022-11-13T15:51:26.674Z,11.39
2022-11-13T15:54:31.774Z,11.38
2022-11-13T15:57:21.682Z,11.26
2022-11-13T16:00:15.076Z,11.23
2022-11-13T16:03:01.475Z,11.21
2022-11-13T16:05:46.717Z,11.18
2022-11-13T16:08:32.477Z,11.13
2022-11-13T16:11:21.013Z,11.05
2022-11-13T16:14:07.169Z,11.01
2022-11-13T16:16:53.700Z,10.91
2022-11-13T16:19:42.119Z,10.73
2022-11-13T16:22:27.874Z,10.41
2022-11-13T16:25:16.703Z,10.34
2022-11-13T16:28:04.543Z,10.25
2022-11-13T16:30:51.094Z,10.25
2022-11-13T16:33:37.420Z,10.17
2022-11-13T16:36:22.917Z,10.05
2022-11-13T16:39:16.300Z,9.90
2022-11-13T16:42:02.270Z,9.59
2022-11-13T16:44:50.421Z,9.32
2022-11-13T16:47:35.746Z,9.22
2022-11-13T16:50:27.782Z,9.17
2022-11-13T16:53:13.505Z,9.00
2022-11-13T16:56:00.424Z,8.97
2022-11-13T16:58:46.152Z,8.90
2022-11-13T17:01:33.179Z,8.77
2022-11-13T17:04:18.802Z,8.61
2022-11-13T17:07:04.417Z,8.55
2022-11-13T17:10:09.988Z,8.51
2022-11-13T17:12:55.677Z,8.43
2022-11-13T17:15:40.809Z,8.41
2022-11-13T17:18:28.089Z,8.46
2022-11-13T17:21:13.266Z,8.27
2022-11-13T17:24:05.052Z,8.15
2022-11-13T17:26:50.732Z,8.20
2022-11-13T17:29:36.557Z,8.08
2022-11-13T17:32:21.762Z,7.93
2022-11-13T17:35:11.528Z,7.76
2022-11-13T17:37:57.471Z,7.69
2022-11-13T17:40:42.709Z,7.67
2022-11-13T17:43:28.545Z,7.64
2022-11-13T17:46:17.381Z,7.62
2022-11-13T17:49:03.338Z,7.66
2022-11-13T17:51:50.560Z,7.71
2022-11-13T17:54:35.917Z,7.75
2022-11-13T17:57:26.539Z,7.63
2022-11-13T18:00:14.074Z,7.48
2022-11-13T18:02:59.629Z,7.22
2022-11-13T18:05:45.952Z,7.22
2022-11-13T18:08:33.659Z,7.17
2022-11-13T18:11:24.904Z,7.22
2022-11-13T18:14:10.714Z,7.26
2022-11-13T18:16:56.037Z,7.18
2022-11-13T18:19:41.880Z,7.20
2022-11-13T18:22:27.527Z,7.24
2022-11-13T18:25:14.894Z,7.32
2022-11-13T18:28:00.167Z,7.37
2022-11-13T18:30:45.567Z,7.43
2022-11-13T18:33:32.905Z,7.47
2022-11-13T18:36:19.225Z,7.53
2022-11-13T18:39:05.002Z,7.54
2022-11-13T18:41:52.331Z,7.52
2022-11-13T18:44:37.996Z,7.46
2022-11-13T18:47:24.089Z,7.48
2022-11-13T18:50:10.046Z,7.50
2022-11-13T18:52:55.667Z,7.50
2022-11-13T18:55:41.219Z,7.17
2022-11-13T18:58:28.908Z,6.96
2022-11-13T19:01:22.214Z,6.83
2022-11-13T19:04:24.355Z,6.61
2022-11-13T19:07:10.139Z,6.50
2022-11-13T19:09:55.853Z,6.45
2022-11-13T19:12:42.288Z,6.53
2022-11-13T19:18:59.141Z,6.29
2022-11-13T19:21:48.728Z,6.28
2022-11-13T19:25:53.616Z,6.28
2022-11-13T19:28:04.102Z,6.19
2022-11-13T19:30:51.213Z,6.32
2022-11-13T19:33:39.237Z,6.34
2022-11-13T19:36:29.111Z,6.45
2022-11-13T19:39:15.307Z,6.48
2022-11-13T19:42:02.627Z,6.46
2022-11-13T19:44:56.028Z,6.45
2022-11-13T19:47:43.399Z,6.40
2022-11-13T19:50:29.234Z,6.35
2022-11-13T19:53:15.005Z,6.24
2022-11-13T19:56:00.510Z,6.17
2022-11-13T19:58:48.558Z,6.15
2022-11-13T20:01:34.076Z,6.21
2022-11-13T20:04:21.198Z,6.33
2022-11-13T20:07:06.784Z,6.42
2022-11-13T20:09:52.147Z,6.46
2022-11-13T20:12:37.913Z,6.50
2022-11-13T20:15:23.633Z,6.55
2022-11-13T20:18:09.347Z,6.55
2022-11-13T20:20:57.753Z,6.55
2022-11-13T20:23:43.318Z,6.56
2022-11-13T20:26:29.438Z,6.55
2022-11-13T20:29:18.103Z,6.54
2022-11-13T20:32:04.804Z,6.47
2022-11-13T20:34:50.518Z,6.48
2022-11-13T20:37:38.138Z,6.40
2022-11-13T20:40:23.382Z,6.42
2022-11-13T20:43:11.669Z,6.31
2022-11-13T20:46:36.393Z,6.24
2022-11-13T20:49:24.463Z,6.24
2022-11-13T20:52:30.995Z,6.13
2022-11-13T20:55:20.987Z,5.93
2022-11-13T20:58:06.975Z,5.84
2022-11-13T21:01:15.459Z,5.73
2022-11-13T21:04:00.880Z,5.79
2022-11-13T21:06:47.760Z,5.86
2022-11-13T21:09:34.433Z,5.91
2022-11-13T21:12:30.668Z,5.97
2022-11-13T21:16:17.588Z,5.98
2022-11-13T21:19:05.689Z,5.96
2022-11-13T21:21:52.561Z,5.98
2022-11-13T21:24:38.223Z,5.86
2022-11-13T21:27:28.585Z,5.80
2022-11-13T21:30:19.325Z,5.85
2022-11-13T21:33:11.039Z,5.85
2022-11-13T21:36:27.741Z,5.87
2022-11-13T21:39:13.302Z,5.90
2022-11-13T21:41:58.753Z,5.87
2022-11-13T21:44:45.275Z,5.81
2022-11-13T21:47:31.004Z,5.84
2022-11-13T21:50:17.004Z,5.82
2022-11-13T21:53:02.242Z,5.81
2022-11-13T21:55:51.188Z,5.77
2022-11-13T21:58:40.238Z,5.43
2022-11-13T22:01:28.037Z,5.42
2022-11-13T22:04:14.046Z,5.43
2022-11-13T22:06:59.702Z,5.47
2022-11-13T22:09:44.858Z,5.51
2022-11-13T22:12:30.122Z,5.50
2022-11-13T22:15:15.909Z,5.50
2022-11-13T22:18:02.821Z,5.51
2022-11-13T22:20:48.798Z,5.41
2022-11-13T22:23:35.460Z,5.24
2022-11-13T22:26:23.287Z,5.19
2022-11-13T22:29:09.653Z,5.06
2022-11-13T22:31:54.790Z,5.14
2022-11-13T22:34:41.371Z,4.83
2022-11-13T22:37:26.642Z,4.71
2022-11-13T22:40:13.297Z,4.67
2022-11-13T22:42:58.864Z,4.55
2022-11-13T22:45:44.408Z,4.54
2022-11-13T22:48:30.152Z,4.52
2022-11-13T22:51:20.668Z,4.54
2022-11-13T22:54:09.268Z,4.55
2022-11-13T22:56:54.822Z,4.59
2022-11-13T22:59:40.013Z,4.66
2022-11-13T23:02:26.155Z,4.69
2022-11-13T23:05:11.899Z,4.77
2022-11-13T23:07:58.958Z,4.88
2022-11-13T23:10:52.304Z,4.94
2022-11-13T23:13:40.723Z,4.96
2022-11-13T23:16:27.412Z,5.00
2022-11-13T23:19:13.180Z,5.03
2022-11-13T23:21:58.689Z,5.03
2022-11-13T23:24:45.585Z,4.98
2022-11-13T23:27:31.412Z,4.85
2022-11-13T23:30:17.270Z,4.91
2022-11-13T23:33:02.416Z,4.99
2022-11-13T23:35:48.849Z,5.09
2022-11-13T23:38:34.563Z,5.11
2022-11-13T23:41:21.356Z,5.06
2022-11-13T23:44:09.099Z,5.15
2022-11-13T23:46:55.908Z,5.20
2022-11-13T23:49:42.492Z,5.22
2022-11-13T23:52:28.064Z,5.21
2022-11-13T23:55:15.055Z,5.37
2022-11-13T23:58:04.799Z,5.40
